Terminal Aerodrome Forecast
Issued by NWS

Home | Current Version | Previous Version | Graphics & Text | Print | Product List | Glossary On
Versions: 1 2 3 4 5 6 7 8 9 10 11 12 13 14 15
000
FTUS43 KGRB 121700
TAFCWA
TAF
KCWA 121738Z 1218/1318 29004KT P6SM VCSH BKN040 OVC200
      TEMPO 1221/1301 4SM TSRA OVC020CB
     FM130200 28005KT P6SM BKN100
     FM131200 29011KT P6SM SCT100=

USA.gov is the U.S. government's official web portal to all federal, state and local government web resources and services.